JBU1495 MDPC-MBPV
Flight info
| Callsign | JBU1495 |
|---|---|
| Flight time | N/A |
| Altitude | 34000 |
| Route | PIXAR2T PIXAR UW10 ASIVO L453 MACKI DCT PVN |
| Aircraft | A321/M-SDE3FGHIRWY/LB1 |
Departure
| Time | N/A |
|---|---|
| Airport | Punta Cana International Airport (MDPC) |
Arrival
| Time | 2026-05-03 20:44 |
|---|---|
| Airport | Providenciales International Airport (MBPV) |
| Time | Latitude | Longitude | Altitude | Speed | Heading |
|---|---|---|---|---|---|
| 2026-05-03 20:15 | 21.54094 | -71.81559 | 5875 ft | 281 kts | 298° |
| 2026-05-03 20:15 | 21.55039 | -71.83393 | 5749 ft | 281 kts | 298° |
| 2026-05-03 20:15 | 21.55984 | -71.85228 | 5630 ft | 281 kts | 298° |
| 2026-05-03 20:15 | 21.56928 | -71.87058 | 5508 ft | 280 kts | 297° |
| 2026-05-03 20:16 | 21.57872 | -71.88893 | 5390 ft | 280 kts | 298° |
| 2026-05-03 20:16 | 21.58812 | -71.90724 | 5272 ft | 280 kts | 298° |
| 2026-05-03 20:16 | 21.59751 | -71.92547 | 5143 ft | 279 kts | 298° |
| 2026-05-03 20:16 | 21.60689 | -71.94364 | 5031 ft | 278 kts | 297° |
| 2026-05-03 20:17 | 21.61626 | -71.96185 | 4911 ft | 278 kts | 297° |
| 2026-05-03 20:17 | 21.62561 | -71.98001 | 4787 ft | 277 kts | 297° |
| 2026-05-03 20:17 | 21.63495 | -71.99817 | 4676 ft | 278 kts | 297° |
| 2026-05-03 20:17 | 21.64430 | -72.01634 | 4535 ft | 278 kts | 297° |
| 2026-05-03 20:18 | 21.65350 | -72.03428 | 4423 ft | 277 kts | 297° |
| 2026-05-03 20:18 | 21.66282 | -72.05244 | 4302 ft | 276 kts | 297° |
| 2026-05-03 20:18 | 21.67209 | -72.07047 | 4177 ft | 275 kts | 297° |
| 2026-05-03 20:18 | 21.68135 | -72.08850 | 4057 ft | 276 kts | 297° |
| 2026-05-03 20:19 | 21.69061 | -72.10661 | 3934 ft | 277 kts | 297° |
| 2026-05-03 20:19 | 21.69989 | -72.12476 | 3813 ft | 276 kts | 297° |
| 2026-05-03 20:19 | 21.70916 | -72.14289 | 3693 ft | 276 kts | 297° |
| 2026-05-03 20:19 | 21.71839 | -72.16088 | 3573 ft | 274 kts | 298° |
| 2026-05-03 20:20 | 21.72760 | -72.17885 | 3449 ft | 274 kts | 298° |
| 2026-05-03 20:20 | 21.73680 | -72.19678 | 3316 ft | 274 kts | 298° |
| 2026-05-03 20:20 | 21.74601 | -72.21475 | 3192 ft | 274 kts | 297° |
| 2026-05-03 20:20 | 21.75526 | -72.23278 | 3071 ft | 275 kts | 297° |
| 2026-05-03 20:21 | 21.76452 | -72.25085 | 2945 ft | 276 kts | 296° |
| 2026-05-03 20:21 | 21.77137 | -72.26985 | 2821 ft | 269 kts | 282° |
| 2026-05-03 20:21 | 21.77361 | -72.28943 | 2708 ft | 260 kts | 273° |
| 2026-05-03 20:21 | 21.77461 | -72.30856 | 2576 ft | 251 kts | 272° |
| 2026-05-03 20:22 | 21.77564 | -72.32695 | 2460 ft | 243 kts | 272° |
| 2026-05-03 20:22 | 21.77665 | -72.34456 | 2333 ft | 235 kts | 272° |
| 2026-05-03 20:22 | 21.77761 | -72.36183 | 2206 ft | 230 kts | 271° |
| 2026-05-03 20:22 | 21.77857 | -72.37896 | 2073 ft | 229 kts | 271° |
| 2026-05-03 20:23 | 21.77953 | -72.39604 | 1964 ft | 228 kts | 272° |
| 2026-05-03 20:23 | 21.78048 | -72.41296 | 1987 ft | 227 kts | 272° |
| 2026-05-03 20:23 | 21.78144 | -72.42993 | 1985 ft | 228 kts | 271° |
| 2026-05-03 20:23 | 21.78315 | -72.44694 | 1984 ft | 231 kts | 287° |
| 2026-05-03 20:24 | 21.79249 | -72.46058 | 1977 ft | 232 kts | 329° |
| 2026-05-03 20:24 | 21.80760 | -72.46452 | 1853 ft | 225 kts | 11° |
| 2026-05-03 20:24 | 21.82099 | -72.45679 | 1761 ft | 221 kts | 54° |
| 2026-05-03 20:24 | 21.82582 | -72.44178 | 1702 ft | 214 kts | 98° |
| 2026-05-03 20:25 | 21.81969 | -72.42762 | 1698 ft | 213 kts | 139° |
| 2026-05-03 20:25 | 21.80736 | -72.41871 | 1713 ft | 215 kts | 147° |
| 2026-05-03 20:25 | 21.79519 | -72.40987 | 1705 ft | 199 kts | 145° |
| 2026-05-03 20:25 | 21.78528 | -72.40032 | 1714 ft | 183 kts | 128° |
| 2026-05-03 20:26 | 21.78017 | -72.38859 | 1689 ft | 173 kts | 106° |
| 2026-05-03 20:26 | 21.77908 | -72.37593 | 1698 ft | 169 kts | 95° |
| 2026-05-03 20:26 | 21.77848 | -72.36335 | 1551 ft | 167 kts | 95° |
| 2026-05-03 20:26 | 21.77789 | -72.35127 | 1306 ft | 152 kts | 96° |
| 2026-05-03 20:27 | 21.77738 | -72.34037 | 1101 ft | 140 kts | 97° |
| 2026-05-03 20:27 | 21.77692 | -72.32993 | 899 ft | 141 kts | 93° |
| 2026-05-03 20:27 | 21.77650 | -72.31953 | 718 ft | 137 kts | 92° |
| 2026-05-03 20:27 | 21.77596 | -72.30932 | 700 ft | 139 kts | 96° |
| 2026-05-03 20:28 | 21.77547 | -72.29904 | 516 ft | 135 kts | 91° |
| 2026-05-03 20:28 | 21.77480 | -72.28860 | 273 ft | 138 kts | 95° |
| 2026-05-03 20:28 | 21.77438 | -72.28153 | 123 ft | 140 kts | 95° |
| 2026-05-03 20:28 | 21.77391 | -72.27122 | 259 ft | 146 kts | 95° |
| 2026-05-03 20:29 | 21.77328 | -72.25846 | 579 ft | 195 kts | 92° |
| 2026-05-03 20:29 | 21.77277 | -72.24247 | 1002 ft | 222 kts | 99° |
| 2026-05-03 20:29 | 21.76736 | -72.22769 | 1993 ft | 213 kts | 130° |
| 2026-05-03 20:29 | 21.75649 | -72.21685 | 2811 ft | 215 kts | 142° |
| 2026-05-03 20:30 | 21.74462 | -72.20714 | 3541 ft | 219 kts | 145° |
| 2026-05-03 20:30 | 21.73062 | -72.20073 | 4234 ft | 223 kts | 173° |
| 2026-05-03 20:30 | 21.71513 | -72.20255 | 4801 ft | 230 kts | 202° |
| 2026-05-03 20:30 | 21.70254 | -72.21286 | 4943 ft | 231 kts | 234° |
| 2026-05-03 20:31 | 21.69690 | -72.22889 | 4977 ft | 233 kts | 265° |
| 2026-05-03 20:31 | 21.69970 | -72.24588 | 4982 ft | 234 kts | 292° |
| 2026-05-03 20:31 | 21.70608 | -72.26206 | 4979 ft | 235 kts | 292° |
| 2026-05-03 20:31 | 21.71241 | -72.27830 | 4981 ft | 236 kts | 291° |
| 2026-05-03 20:32 | 21.71873 | -72.29461 | 4979 ft | 236 kts | 291° |
| 2026-05-03 20:32 | 21.72503 | -72.31097 | 4982 ft | 237 kts | 290° |
| 2026-05-03 20:32 | 21.73134 | -72.32736 | 4982 ft | 237 kts | 290° |
| 2026-05-03 20:32 | 21.73764 | -72.34373 | 4980 ft | 237 kts | 291° |
| 2026-05-03 20:33 | 21.74392 | -72.36006 | 4982 ft | 236 kts | 290° |
| 2026-05-03 20:33 | 21.75021 | -72.37641 | 4982 ft | 237 kts | 291° |
| 2026-05-03 20:33 | 21.75650 | -72.39276 | 4991 ft | 236 kts | 291° |
| 2026-05-03 20:33 | 21.76274 | -72.40908 | 4984 ft | 236 kts | 291° |
| 2026-05-03 20:34 | 21.76900 | -72.42542 | 4987 ft | 236 kts | 291° |
| 2026-05-03 20:34 | 21.77524 | -72.44173 | 4989 ft | 236 kts | 291° |
| 2026-05-03 20:34 | 21.78147 | -72.45805 | 4991 ft | 236 kts | 289° |
| 2026-05-03 20:34 | 21.78528 | -72.47511 | 4993 ft | 235 kts | 276° |
| 2026-05-03 20:35 | 21.78654 | -72.49257 | 4996 ft | 234 kts | 271° |
| 2026-05-03 20:35 | 21.78700 | -72.51004 | 4996 ft | 234 kts | 270° |
| 2026-05-03 20:35 | 21.78733 | -72.52752 | 4998 ft | 234 kts | 270° |
| 2026-05-03 20:35 | 21.78774 | -72.54501 | 4998 ft | 234 kts | 270° |
| 2026-05-03 20:36 | 21.78685 | -72.56237 | 4998 ft | 231 kts | 251° |
| 2026-05-03 20:36 | 21.77901 | -72.57707 | 4999 ft | 227 kts | 224° |
| 2026-05-03 20:36 | 21.76588 | -72.58611 | 4980 ft | 226 kts | 197° |
| 2026-05-03 20:36 | 21.75052 | -72.58769 | 4701 ft | 223 kts | 169° |
| 2026-05-03 20:37 | 21.73641 | -72.58122 | 4373 ft | 223 kts | 142° |
| 2026-05-03 20:37 | 21.72663 | -72.56845 | 4040 ft | 224 kts | 115° |
| 2026-05-03 20:37 | 21.72343 | -72.55222 | 3722 ft | 225 kts | 88° |
| 2026-05-03 20:37 | 21.72762 | -72.53613 | 3414 ft | 226 kts | 60° |
| 2026-05-03 20:38 | 21.73725 | -72.52272 | 3063 ft | 227 kts | 52° |
| 2026-05-03 20:38 | 21.74723 | -72.50983 | 2742 ft | 226 kts | 52° |
| 2026-05-03 20:38 | 21.75723 | -72.49687 | 2461 ft | 224 kts | 51° |
| 2026-05-03 20:38 | 21.76713 | -72.48399 | 2163 ft | 223 kts | 53° |
| 2026-05-03 20:39 | 21.77685 | -72.47108 | 1858 ft | 220 kts | 56° |
| 2026-05-03 20:39 | 21.78235 | -72.45626 | 1795 ft | 214 kts | 85° |
| 2026-05-03 20:39 | 21.78218 | -72.44017 | 1745 ft | 216 kts | 94° |
| 2026-05-03 20:39 | 21.78137 | -72.42403 | 1695 ft | 209 kts | 95° |
| 2026-05-03 20:40 | 21.78069 | -72.40960 | 1706 ft | 178 kts | 92° |
| 2026-05-03 20:40 | 21.78011 | -72.39732 | 1708 ft | 154 kts | 94° |
| 2026-05-03 20:40 | 21.77958 | -72.38627 | 1678 ft | 145 kts | 95° |
| 2026-05-03 20:40 | 21.77906 | -72.37555 | 1648 ft | 142 kts | 96° |
| 2026-05-03 20:41 | 21.77854 | -72.36498 | 1526 ft | 142 kts | 94° |
| 2026-05-03 20:41 | 21.77802 | -72.35451 | 1326 ft | 137 kts | 96° |
| 2026-05-03 20:41 | 21.77752 | -72.34444 | 1180 ft | 134 kts | 95° |
| 2026-05-03 20:41 | 21.77699 | -72.33428 | 1132 ft | 138 kts | 94° |
| 2026-05-03 20:42 | 21.77649 | -72.32422 | 983 ft | 133 kts | 94° |
| 2026-05-03 20:42 | 21.77596 | -72.31424 | 695 ft | 133 kts | 96° |
| 2026-05-03 20:42 | 21.77567 | -72.30438 | 512 ft | 134 kts | 93° |
| 2026-05-03 20:42 | 21.77498 | -72.29419 | 358 ft | 138 kts | 97° |
| 2026-05-03 20:43 | 21.77450 | -72.28382 | 149 ft | 140 kts | 95° |
| 2026-05-03 20:43 | 21.77396 | -72.27346 | 57 ft | 138 kts | 95° |
| 2026-05-03 20:43 | 21.77348 | -72.26438 | 38 ft | 103 kts | 92° |
| 2026-05-03 20:43 | 21.77319 | -72.25791 | 36 ft | 70 kts | 93° |
| 2026-05-03 20:44 | 21.77333 | -72.25572 | 36 ft | 10 kts | 43° |
| 2026-05-03 20:44 | 21.77328 | -72.25546 | 36 ft | 2 kts | 196° |
| 2026-05-03 20:44 | 21.77309 | -72.25603 | 33 ft | 13 kts | 274° |
| 2026-05-03 20:44 | 21.77318 | -72.25735 | 36 ft | 24 kts | 274° |